Time;durP1;ratioP1;P1;durP2;ratioP2;P2;SDS_P1;SDS_P2;PMS_P1;PMS_P2;Temp;Humidity;BMP_temperature;BMP_pressure;BME280_temperature;BME280_humidity;BME280_pressure;Samples;Min_cycle;Max_cycle;Signal;HPM_P1;HPM_P2
2023/05/20 00:00:10;;;;;;;21.40;15.90;;;;;;;13.52;72.24;99922.90;223312;184;145619;-65
2023/05/20 00:05:33;;;;;;;24.20;16.70;;;;;;;13.47;72.42;99927.30;223348;183;138524;-64
2023/05/20 00:10:46;;;;;;;21.90;15.20;;;;;;;13.41;72.55;99923.87;223301;184;136437;-63
2023/05/20 00:15:52;;;;;;;23.80;15.20;;;;;;;13.42;72.89;99916.91;223284;184;146799;-63
2023/05/20 00:20:55;;;;;;;21.80;15.00;;;;;;;13.43;72.94;99921.95;223319;183;138668;-66
2023/05/20 00:25:58;;;;;;;24.20;15.70;;;;;;;13.48;72.96;99927.23;223426;184;137361;-65
2023/05/20 00:31:03;;;;;;;22.50;15.80;;;;;;;13.53;72.86;99924.25;223380;183;149347;-65
2023/05/20 00:36:07;;;;;;;25.60;16.90;;;;;;;13.55;72.76;99921.13;223403;184;138228;-66
2023/05/20 00:41:10;;;;;;;26.50;17.50;;;;;;;13.52;72.83;99924.16;223433;183;137734;-67
2023/05/20 00:46:14;;;;;;;25.20;17.40;;;;;;;13.49;73.01;99919.11;223362;184;145492;-63
2023/05/20 00:51:18;;;;;;;22.60;16.10;;;;;;;13.47;73.03;99915.69;223370;183;139020;-65
2023/05/20 00:56:21;;;;;;;24.00;16.60;;;;;;;13.45;73.37;99911.15;223486;183;138074;-63
2023/05/20 01:01:25;;;;;;;24.00;17.30;;;;;;;13.47;73.49;99910.16;223374;183;145795;-66
2023/05/20 01:06:28;;;;;;;25.70;16.80;;;;;;;13.49;73.66;99910.61;223451;184;138351;-61
2023/05/20 01:11:37;;;;;;;25.60;17.70;;;;;;;13.47;73.67;99902.14;223423;184;137412;-61
2023/05/20 01:16:42;;;;;;;22.90;16.80;;;;;;;13.43;73.88;99901.83;223388;184;144941;-61
2023/05/20 01:21:47;;;;;;;25.10;18.20;;;;;;;13.39;74.03;99899.05;223486;183;138309;-64
2023/05/20 01:26:51;;;;;;;22.60;16.50;;;;;;;13.33;74.27;99893.90;223393;184;137243;-65
2023/05/20 01:31:57;;;;;;;24.40;17.10;;;;;;;13.34;74.60;99886.16;223600;183;145176;-65
2023/05/20 01:37:03;;;;;;;28.80;18.60;;;;;;;13.41;74.51;99884.69;223244;184;140494;-62
2023/05/20 01:42:09;;;;;;;23.80;18.10;;;;;;;13.44;74.49;99882.38;223507;183;137160;-65
2023/05/20 01:47:12;;;;;;;26.50;18.30;;;;;;;13.43;74.53;99878.50;223470;183;146260;-64
2023/05/20 01:52:16;;;;;;;25.70;18.90;;;;;;;13.39;74.62;99874.08;223311;184;140784;-64
2023/05/20 01:57:21;;;;;;;30.50;20.50;;;;;;;13.36;74.77;99880.34;223572;182;137604;-63
2023/05/20 02:02:25;;;;;;;25.70;18.00;;;;;;;13.34;74.81;99878.16;223631;182;145417;-63
2023/05/20 02:07:28;;;;;;;25.80;19.10;;;;;;;13.34;75.09;99879.03;223599;182;138861;-65
2023/05/20 02:12:31;;;;;;;29.00;19.50;;;;;;;13.40;75.04;99878.36;223545;183;137908;-65
2023/05/20 02:17:34;;;;;;;27.50;19.50;;;;;;;13.40;74.95;99879.56;223741;182;145329;-65
2023/05/20 02:22:38;;;;;;;28.40;19.60;;;;;;;13.41;75.10;99885.95;223558;182;138468;-67
2023/05/20 02:27:41;;;;;;;28.10;20.30;;;;;;;13.41;75.06;99895.19;223650;182;137171;-67
2023/05/20 02:32:44;;;;;;;25.30;17.70;;;;;;;13.39;75.09;99898.35;223579;183;146307;-64
2023/05/20 02:37:47;;;;;;;30.20;18.60;;;;;;;13.39;75.33;99890.69;223606;183;139264;-66
2023/05/20 02:42:51;;;;;;;24.90;18.10;;;;;;;13.43;75.23;99887.56;223621;182;137617;-63
2023/05/20 02:47:54;;;;;;;26.30;18.30;;;;;;;13.45;75.21;99883.88;223577;181;145798;-64
2023/05/20 02:53:00;;;;;;;26.40;19.90;;;;;;;13.48;75.27;99884.09;223651;182;140826;-65
2023/05/20 02:58:03;;;;;;;25.80;18.40;;;;;;;13.45;75.23;99887.27;223553;182;137924;-64
2023/05/20 03:03:09;;;;;;;23.40;17.30;;;;;;;13.42;75.32;99892.47;223644;182;145867;-64
2023/05/20 03:08:12;;;;;;;23.60;17.40;;;;;;;13.43;75.49;99892.92;223535;182;138471;-64
2023/05/20 03:13:15;;;;;;;26.20;18.10;;;;;;;13.47;75.50;99888.57;223574;182;137810;-64
2023/05/20 03:18:18;;;;;;;31.40;19.50;;;;;;;13.49;75.55;99895.06;223582;182;145023;-64
2023/05/20 03:23:22;;;;;;;28.40;18.60;;;;;;;13.47;75.57;99905.85;223579;182;138600;-65
2023/05/20 03:28:25;;;;;;;30.40;19.20;;;;;;;13.46;75.61;99908.09;223573;182;137166;-66
2023/05/20 03:33:28;;;;;;;23.20;18.00;;;;;;;13.42;75.69;99908.47;223637;182;145781;-67
2023/05/20 03:38:32;;;;;;;25.10;18.20;;;;;;;13.46;75.86;99904.71;223629;182;138666;-65
2023/05/20 03:43:35;;;;;;;26.50;18.50;;;;;;;13.53;75.72;99896.64;223694;182;137527;-66
2023/05/20 03:48:40;;;;;;;25.20;17.80;;;;;;;13.55;75.63;99896.32;223572;182;145802;-67
2023/05/20 03:58:28;;;;;;;26.20;18.80;;;;;;;13.58;75.54;99899.50;221973;192;666342;-67
2023/05/20 04:03:31;;;;;;;24.90;16.90;;;;;;;13.55;75.59;99901.13;223077;187;136993;-67
2023/05/20 04:08:38;;;;;;;24.20;17.30;;;;;;;13.55;75.65;99897.95;223316;185;143564;-64
2023/05/20 04:13:42;;;;;;;25.40;18.80;;;;;;;13.59;75.79;99889.48;223347;185;138108;-64
2023/05/20 04:18:47;;;;;;;26.60;18.90;;;;;;;13.66;75.71;99886.88;223418;185;137129;-64
2023/05/20 04:23:50;;;;;;;31.10;18.90;;;;;;;13.70;75.64;99886.11;223569;183;143701;-65
2023/05/20 04:28:57;;;;;;;27.20;19.00;;;;;;;13.73;75.77;99891.11;223605;180;138488;-64
2023/05/20 04:34:03;;;;;;;26.50;17.30;;;;;;;13.73;75.74;99885.20;223750;181;136768;-64
2023/05/20 04:39:06;;;;;;;29.10;18.00;;;;;;;13.77;75.76;99887.83;223618;182;143909;-64
2023/05/20 04:44:10;;;;;;;30.10;18.60;;;;;;;13.83;75.77;99888.55;223676;182;140745;-65
2023/05/20 04:49:14;;;;;;;26.80;18.80;;;;;;;13.89;75.84;99887.11;223648;182;137415;-63
2023/05/20 04:54:19;;;;;;;28.90;18.80;;;;;;;13.91;75.83;99892.10;223594;182;146266;-65
2023/05/20 04:59:22;;;;;;;26.30;18.60;;;;;;;13.90;75.85;99892.19;223583;180;138934;-63
2023/05/20 05:04:26;;;;;;;25.80;16.80;;;;;;;13.88;76.18;99891.23;223534;177;137264;-65
2023/05/20 05:09:29;;;;;;;23.10;16.30;;;;;;;13.91;76.35;99893.00;223555;182;145466;-64
2023/05/20 05:14:34;;;;;;;26.60;16.90;;;;;;;14.00;76.50;99900.00;223607;181;140505;-63
2023/05/20 05:19:37;;;;;;;23.30;16.80;;;;;;;14.09;76.61;99901.76;223620;181;137195;-65
2023/05/20 05:24:41;;;;;;;23.60;16.80;;;;;;;14.15;76.68;99901.70;223620;182;146548;-65
2023/05/20 05:29:45;;;;;;;23.20;17.10;;;;;;;14.20;76.80;99900.83;223569;181;138341;-63
2023/05/20 05:34:48;;;;;;;19.40;14.60;;;;;;;14.25;77.01;99898.05;223596;182;137274;-65
2023/05/20 05:39:51;;;;;;;19.00;15.10;;;;;;;14.35;77.36;99903.66;223621;181;145364;-63
2023/05/20 05:44:54;;;;;;;19.10;15.20;;;;;;;14.48;77.42;99901.55;223669;181;140024;-64
2023/05/20 05:50:01;;;;;;;21.10;16.20;;;;;;;14.60;77.34;99902.11;223715;181;137755;-65
2023/05/20 05:55:09;;;;;;;26.00;17.30;;;;;;;14.67;77.25;99901.27;223645;181;145820;-64
2023/05/20 06:00:12;;;;;;;24.20;17.80;;;;;;;14.75;77.23;99903.83;223617;182;138677;-65
2023/05/20 06:05:21;;;;;;;24.90;17.30;;;;;;;14.75;77.14;99900.77;223649;181;137873;-64
2023/05/20 06:10:28;;;;;;;25.40;18.60;;;;;;;14.80;77.23;99894.50;223579;182;145781;-65
2023/05/20 06:15:31;;;;;;;25.50;18.90;;;;;;;14.87;77.06;99897.28;223527;182;138257;-67
2023/05/20 06:20:34;;;;;;;25.90;19.30;;;;;;;14.93;77.02;99895.64;223647;181;137962;-65
2023/05/20 06:25:38;;;;;;;29.30;20.30;;;;;;;14.98;76.94;99899.25;223683;182;145322;-66
2023/05/20 06:30:42;;;;;;;26.50;19.90;;;;;;;15.01;76.71;99900.13;223620;181;138967;-63
2023/05/20 06:35:46;;;;;;;80.00;59.70;;;;;;;15.04;77.04;99900.23;223652;181;137967;-62
2023/05/20 06:40:50;;;;;;;30.80;21.20;;;;;;;15.20;77.20;99898.30;223534;181;145244;-62
2023/05/20 06:45:53;;;;;;;25.10;18.90;;;;;;;15.35;77.47;99897.07;223571;181;138308;-63
2023/05/20 06:51:09;;;;;;;28.40;20.20;;;;;;;15.57;77.27;99895.06;223630;181;137493;-65
2023/05/20 06:56:13;;;;;;;29.10;20.00;;;;;;;15.72;76.84;99893.72;223651;181;145439;-65
2023/05/20 07:01:17;;;;;;;33.30;25.90;;;;;;;15.77;76.76;99893.50;223593;181;138175;-66
2023/05/20 07:06:22;;;;;;;26.70;19.90;;;;;;;16.35;77.19;99887.27;223690;182;137710;-66
2023/05/20 07:11:25;;;;;;;25.30;19.10;;;;;;;16.84;75.33;99873.31;223609;182;145947;-64
2023/05/20 07:16:31;;;;;;;36.40;27.70;;;;;;;17.02;73.79;99869.97;223578;181;137743;-63
2023/05/20 07:21:35;;;;;;;41.40;31.10;;;;;;;17.18;73.35;99863.93;223653;181;138877;-64
2023/05/20 07:26:54;;;;;;;28.70;19.30;;;;;;;17.28;72.39;99857.61;223621;181;147661;-61
2023/05/20 07:33:28;;;;;;;27.50;20.10;;;;;;;17.03;72.30;99852.16;221460;193;665578;-64
2023/05/20 07:38:32;;;;;;;23.70;17.10;;;;;;;16.82;72.36;99852.26;223722;181;136792;-66
2023/05/20 07:43:38;;;;;;;27.60;18.80;;;;;;;16.68;72.59;99856.14;223748;181;143272;-67
2023/05/20 07:48:42;;;;;;;26.50;17.80;;;;;;;16.62;72.89;99854.45;223620;181;139046;-66
2023/05/20 07:53:46;;;;;;;23.60;18.40;;;;;;;16.52;72.95;99860.04;223704;181;137751;-64
2023/05/20 07:58:54;;;;;;;25.60;19.80;;;;;;;16.43;73.38;99858.89;223651;181;145704;-65
2023/05/20 08:03:59;;;;;;;27.90;19.60;;;;;;;16.33;73.54;99856.61;223700;181;138977;-65
2023/05/20 08:09:04;;;;;;;25.30;18.30;;;;;;;16.29;73.95;99852.58;223703;179;137349;-68
2023/05/20 08:14:09;;;;;;;24.90;19.10;;;;;;;16.32;74.40;99846.41;223757;180;143975;-67
2023/05/20 08:19:15;;;;;;;29.80;19.50;;;;;;;16.39;74.49;99845.05;223609;181;138912;-65
2023/05/20 08:24:21;;;;;;;28.20;20.50;;;;;;;16.42;74.58;99843.05;223657;181;137575;-65
2023/05/20 08:29:25;;;;;;;32.00;20.60;;;;;;;16.47;74.49;99842.17;223676;181;145131;-66
2023/05/20 08:34:29;;;;;;;27.60;19.50;;;;;;;16.54;74.46;99842.52;223704;182;138711;-68
2023/05/20 08:39:32;;;;;;;32.10;20.20;;;;;;;16.63;74.61;99838.45;223661;182;136993;-65
2023/05/20 08:44:35;;;;;;;32.30;22.20;;;;;;;16.71;74.37;99837.46;223662;181;145332;-65
2023/05/20 08:49:38;;;;;;;35.50;23.70;;;;;;;16.71;74.24;99839.06;223710;182;140232;-64
2023/05/20 08:54:48;;;;;;;35.80;21.50;;;;;;;16.70;74.33;99838.10;223630;182;137304;-64
2023/05/20 08:59:51;;;;;;;30.40;20.50;;;;;;;16.72;74.53;99841.02;223708;181;144992;-64
2023/05/20 09:04:54;;;;;;;39.20;22.20;;;;;;;16.78;74.48;99836.64;223642;181;139986;-63
2023/05/20 09:09:58;;;;;;;35.50;23.30;;;;;;;16.85;74.03;99830.38;223612;182;137379;-66
2023/05/20 09:15:07;;;;;;;38.00;23.50;;;;;;;16.85;73.87;99827.88;223620;181;145080;-66
2023/05/20 09:20:11;;;;;;;31.00;21.50;;;;;;;16.90;74.35;99830.16;223641;181;138808;-64
2023/05/20 09:25:19;;;;;;;32.40;22.60;;;;;;;17.01;73.83;99829.16;223640;181;137220;-62
2023/05/20 09:30:26;;;;;;;36.70;24.10;;;;;;;17.11;73.79;99833.59;223589;181;145043;-62
2023/05/20 09:35:29;;;;;;;28.00;20.20;;;;;;;17.26;73.69;99824.17;223734;181;138431;-66
2023/05/20 09:40:36;;;;;;;31.80;22.40;;;;;;;17.42;73.24;99824.01;223626;182;137322;-63
2023/05/20 09:45:40;;;;;;;27.80;20.90;;;;;;;17.44;72.87;99821.72;223571;181;145483;-66
2023/05/20 09:50:44;;;;;;;81.90;57.00;;;;;;;17.47;72.77;99819.18;223640;181;138401;-62
2023/05/20 09:55:48;;;;;;;30.30;21.50;;;;;;;17.51;72.60;99819.89;223640;182;137169;-65
2023/05/20 10:00:52;;;;;;;107.70;84.70;;;;;;;17.50;72.27;99818.75;223644;182;147254;-64
2023/05/20 10:06:04;;;;;;;30.30;22.00;;;;;;;17.50;72.54;99817.68;223699;182;140503;-67
2023/05/20 10:11:18;;;;;;;35.40;21.30;;;;;;;17.56;72.55;99820.10;223670;181;138331;-64
2023/05/20 10:16:45;;;;;;;30.00;21.50;;;;;;;17.60;72.65;99809.88;223684;181;145111;-62
2023/05/20 10:22:10;;;;;;;29.30;21.20;;;;;;;17.74;72.72;99806.99;223628;182;138967;-63
2023/05/20 10:27:17;;;;;;;30.10;21.50;;;;;;;17.92;71.71;99799.86;223696;181;140973;-63
2023/05/20 10:32:24;;;;;;;42.00;28.60;;;;;;;18.02;71.45;99803.86;223783;181;145523;-63
2023/05/20 10:37:31;;;;;;;29.00;20.00;;;;;;;18.16;71.01;99800.71;223726;181;140323;-64
2023/05/20 10:42:34;;;;;;;30.80;21.60;;;;;;;18.30;70.67;99802.50;223609;181;138046;-64
2023/05/20 10:47:57;;;;;;;30.90;21.90;;;;;;;18.37;70.22;99806.74;223695;182;147509;-64
2023/05/20 10:53:14;;;;;;;27.40;19.80;;;;;;;18.58;70.03;99803.43;223453;181;138213;-62
2023/05/20 10:58:38;;;;;;;95.70;73.50;;;;;;;18.61;69.70;99801.70;223690;181;141074;-62
2023/05/20 11:03:43;;;;;;;37.50;25.60;;;;;;;18.63;69.59;99798.28;223586;181;145410;-62
2023/05/20 11:08:47;;;;;;;;;;;;;;;18.79;69.54;99788.35;223636;181;138455;-63
2023/05/20 11:13:56;;;;;;;37.20;22.90;;;;;;;19.05;69.65;99776.30;223744;181;129947;-63
2023/05/20 11:18:59;;;;;;;45.60;23.70;;;;;;;19.24;69.74;99766.02;223642;181;145591;-63
2023/05/20 11:24:03;;;;;;;30.00;20.70;;;;;;;19.47;69.58;99759.85;223554;182;148694;-63
2023/05/20 11:29:06;;;;;;;27.40;19.70;;;;;;;19.66;69.20;99749.08;223611;182;138074;-64
2023/05/20 11:34:10;;;;;;;28.80;20.40;;;;;;;19.84;68.32;99743.29;223594;182;145283;-66
2023/05/20 11:39:13;;;;;;;27.40;20.30;;;;;;;20.03;67.42;99737.87;223677;181;138943;-64
2023/05/20 11:44:19;;;;;;;26.10;19.10;;;;;;;20.29;66.30;99735.80;223743;182;136633;-64
2023/05/20 11:49:22;;;;;;;48.60;39.00;;;;;;;20.60;65.51;99731.38;223695;182;145381;-64
2023/05/20 12:33:27;;;;;;;23.90;16.30;;;;;;;22.75;60.65;99666.35;221935;226;666386;-65
2023/05/20 12:38:31;;;;;;;21.80;15.30;;;;;;;22.94;60.58;99657.34;223454;186;137077;-67
2023/05/20 12:43:35;;;;;;;17.70;14.40;;;;;;;23.26;60.01;99654.23;223747;182;144309;-67
2023/05/20 12:48:39;;;;;;;;;;;;;;;23.43;59.01;99653.12;223672;183;138311;-65
2023/05/20 12:53:44;;;;;;;19.30;14.70;;;;;;;23.53;58.46;99648.55;223749;183;128175;-65
2023/05/20 12:58:47;;;;;;;23.40;15.10;;;;;;;23.58;57.52;99639.16;223659;182;143617;-69
2023/05/20 13:03:52;;;;;;;20.20;14.90;;;;;;;23.69;57.79;99628.28;223705;183;138475;-68
2023/05/20 13:08:56;;;;;;;20.80;14.50;;;;;;;23.90;57.57;99625.23;223763;182;137454;-69
2023/05/20 13:13:59;;;;;;;18.60;14.80;;;;;;;24.14;56.96;99615.23;223772;183;144700;-65
2023/05/20 13:19:02;;;;;;;19.60;14.40;;;;;;;24.30;56.67;99611.83;223742;183;142053;-66
2023/05/20 13:24:05;;;;;;;17.30;15.10;;;;;;;24.48;55.76;99608.77;223637;183;137858;-66
2023/05/20 13:29:09;;;;;;;20.60;14.20;;;;;;;24.48;55.73;99605.50;223713;182;145920;-67
2023/05/20 13:34:12;;;;;;;19.20;14.00;;;;;;;24.53;55.56;99605.31;223609;183;138905;-67
2023/05/20 13:39:16;;;;;;;17.60;13.80;;;;;;;24.63;55.71;99598.41;223655;183;137911;-68
2023/05/20 13:44:21;;;;;;;23.40;14.60;;;;;;;24.73;55.74;99591.85;223691;183;145039;-65
2023/05/20 13:49:24;;;;;;;22.40;15.80;;;;;;;24.83;55.82;99581.84;223632;183;138707;-65
2023/05/20 13:54:28;;;;;;;18.10;15.00;;;;;;;24.85;55.44;99581.38;223633;183;137363;-67
2023/05/20 13:59:32;;;;;;;22.00;14.20;;;;;;;24.80;55.59;99576.36;223659;183;146395;-68
2023/05/20 14:04:38;;;;;;;18.30;14.10;;;;;;;24.72;55.43;99569.98;223704;181;139330;-68
2023/05/20 14:09:42;;;;;;;18.50;14.40;;;;;;;24.62;55.49;99563.63;223552;181;136827;-66
2023/05/20 14:14:45;;;;;;;20.40;14.20;;;;;;;24.52;55.65;99558.04;223678;181;145368;-68
2023/05/20 14:19:48;;;;;;;197.20;155.60;;;;;;;24.45;55.89;99554.33;223647;181;141274;-67
2023/05/20 14:24:52;;;;;;;21.00;17.00;;;;;;;24.33;55.78;99547.14;223675;182;137910;-66
2023/05/20 14:29:55;;;;;;;25.00;14.20;;;;;;;24.17;56.44;99545.65;223694;181;145304;-65
2023/05/20 14:34:58;;;;;;;17.90;12.30;;;;;;;24.14;56.71;99541.30;223707;182;139280;-64
2023/05/20 14:40:03;;;;;;;14.20;12.00;;;;;;;24.11;56.48;99548.67;223656;181;138020;-66
2023/05/20 14:45:07;;;;;;;;;;;;;;;24.08;56.75;99549.90;223750;181;145708;-65
2023/05/20 14:50:10;;;;;;;13.60;11.70;;;;;;;23.98;56.59;99550.95;223822;182;138366;-67
2023/05/20 14:55:13;;;;;;;16.10;10.70;;;;;;;23.84;56.18;99543.86;223779;181;137476;-67
2023/05/20 15:00:17;;;;;;;12.40;10.90;;;;;;;23.76;56.11;99546.67;223759;181;145957;-66
2023/05/20 15:05:20;;;;;;;18.50;10.30;;;;;;;23.69;55.97;99544.23;223657;181;138954;-66
2023/05/20 15:10:23;;;;;;;14.90;10.70;;;;;;;23.62;56.25;99544.91;223714;181;137799;-65
2023/05/20 15:15:26;;;;;;;14.40;10.70;;;;;;;23.56;56.24;99537.59;223647;181;145163;-66
2023/05/20 15:20:29;;;;;;;16.30;11.30;;;;;;;23.48;56.66;99531.44;223648;182;138462;-66
2023/05/20 15:25:33;;;;;;;14.30;11.60;;;;;;;23.42;57.37;99529.00;223740;182;137341;-64
2023/05/20 15:30:36;;;;;;;15.40;10.90;;;;;;;23.32;57.63;99521.83;223722;181;145123;-65
2023/05/20 15:35:40;;;;;;;16.50;12.00;;;;;;;23.22;57.98;99519.05;223770;182;140995;-66
2023/05/20 15:40:43;;;;;;;12.70;10.70;;;;;;;23.15;58.29;99513.23;223720;181;138225;-65
2023/05/20 15:45:49;;;;;;;19.20;10.90;;;;;;;23.13;58.53;99515.97;223633;181;145895;-65
2023/05/20 15:51:01;;;;;;;21.70;11.40;;;;;;;23.09;58.51;99508.55;223738;181;140460;-64
2023/05/20 15:56:05;;;;;;;14.90;10.30;;;;;;;23.01;58.28;99499.66;223747;181;137282;-64
2023/05/20 16:01:08;;;;;;;13.80;10.50;;;;;;;22.98;58.00;99503.65;223755;181;145234;-65
2023/05/20 16:06:11;;;;;;;14.90;10.80;;;;;;;22.95;57.81;99505.81;223717;181;138358;-66
2023/05/20 16:11:15;;;;;;;13.80;10.60;;;;;;;22.90;58.95;99502.44;223700;182;138697;-66
2023/05/20 16:16:18;;;;;;;14.50;10.20;;;;;;;22.87;59.66;99501.02;223704;181;145921;-64
2023/05/20 16:21:23;;;;;;;14.60;10.80;;;;;;;22.89;59.87;99501.63;223809;181;138106;-66
2023/05/20 16:26:29;;;;;;;15.40;11.00;;;;;;;22.82;59.59;99497.02;223821;181;137340;-65
2023/05/20 16:33:27;;;;;;;13.80;10.00;;;;;;;22.78;59.75;99500.48;221527;192;665987;-63
2023/05/20 16:38:33;;;;;;;15.50;10.50;;;;;;;22.71;60.11;99498.27;223748;183;136181;-63
2023/05/20 16:43:36;;;;;;;11.50;9.40;;;;;;;22.66;60.08;99494.66;223798;183;143889;-65
2023/05/20 16:48:40;;;;;;;14.00;9.60;;;;;;;22.58;59.75;99497.19;223716;182;139360;-65
2023/05/20 16:53:43;;;;;;;13.00;10.20;;;;;;;22.53;59.52;99493.77;223815;182;136132;-64
2023/05/20 16:58:46;;;;;;;11.30;8.60;;;;;;;22.45;58.62;99488.56;223807;183;143497;-65
2023/05/20 17:03:50;;;;;;;11.80;8.10;;;;;;;22.36;57.49;99487.66;223737;183;138381;-65
2023/05/20 17:08:54;;;;;;;11.40;7.80;;;;;;;22.27;56.62;99490.45;223820;182;137476;-64
2023/05/20 17:13:57;;;;;;;13.10;9.20;;;;;;;22.21;56.42;99488.17;223815;183;143530;-65
2023/05/20 17:19:00;;;;;;;11.10;7.90;;;;;;;22.14;56.40;99490.10;223724;182;138468;-64
2023/05/20 17:24:04;;;;;;;11.40;8.10;;;;;;;22.06;56.60;99495.45;223860;183;136190;-65
2023/05/20 17:33:30;;;;;;;14.80;8.20;;;;;;;21.98;57.21;99495.34;220897;192;666301;-65
2023/05/20 17:38:33;;;;;;;12.90;9.10;;;;;;;21.86;57.42;99494.40;223690;184;136867;-64
2023/05/20 17:43:36;;;;;;;12.80;8.80;;;;;;;21.81;58.10;99491.35;223844;182;143437;-66
2023/05/20 17:48:40;;;;;;;11.80;9.10;;;;;;;21.70;59.17;99492.98;223817;182;138498;-65
2023/05/20 17:53:43;;;;;;;10.10;7.90;;;;;;;21.57;58.63;99498.49;223746;182;136335;-65
2023/05/20 17:58:46;;;;;;;8.60;6.70;;;;;;;21.44;57.59;99500.08;223766;182;143969;-65
2023/05/20 18:03:50;;;;;;;9.80;7.60;;;;;;;21.33;57.02;99506.09;223798;182;139119;-65
2023/05/20 18:08:56;;;;;;;12.00;7.60;;;;;;;21.21;57.17;99506.72;223724;182;136795;-64
2023/05/20 18:14:02;;;;;;;12.90;8.10;;;;;;;21.09;57.46;99507.19;223802;182;144132;-67
2023/05/20 18:19:05;;;;;;;10.60;8.00;;;;;;;20.92;57.43;99509.77;223786;182;138368;-64
2023/05/20 18:24:10;;;;;;;11.10;8.50;;;;;;;20.77;57.56;99512.13;223748;182;136514;-66
2023/05/20 18:29:13;;;;;;;9.80;7.40;;;;;;;20.63;57.76;99509.39;223747;182;144965;-66
2023/05/20 18:34:16;;;;;;;15.40;8.40;;;;;;;20.55;58.02;99509.59;223816;182;138813;-65
2023/05/20 18:39:23;;;;;;;12.60;8.10;;;;;;;20.45;58.36;99514.64;223781;182;137839;-65
2023/05/20 18:44:26;;;;;;;12.70;8.00;;;;;;;20.34;58.59;99521.83;223786;182;145811;-66
2023/05/20 18:49:29;;;;;;;12.60;8.30;;;;;;;20.22;58.91;99524.94;223722;182;139505;-66
2023/05/20 18:54:32;;;;;;;12.20;8.80;;;;;;;20.12;59.27;99526.92;223753;182;136632;-65
2023/05/20 18:59:35;;;;;;;12.10;8.80;;;;;;;20.03;59.54;99525.02;223683;183;145840;-65
2023/05/20 19:04:39;;;;;;;14.30;8.80;;;;;;;19.93;59.82;99524.27;223636;182;138760;-65
2023/05/20 19:09:42;;;;;;;13.90;9.60;;;;;;;19.81;60.19;99530.02;223712;182;137308;-67
2023/05/20 19:14:45;;;;;;;14.50;9.80;;;;;;;19.74;60.67;99531.06;223730;183;145353;-64
2023/05/20 19:19:48;;;;;;;11.60;8.30;;;;;;;19.65;60.69;99528.79;223728;182;141365;-65
2023/05/20 19:24:52;;;;;;;11.10;8.30;;;;;;;19.62;61.02;99535.33;223754;182;137573;-65
2023/05/20 19:29:55;;;;;;;11.00;9.60;;;;;;;19.66;60.98;99537.77;223686;182;147051;-65
2023/05/20 19:34:58;;;;;;;13.40;9.50;;;;;;;19.67;61.08;99544.96;223714;182;138424;-65
2023/05/20 19:40:01;;;;;;;15.30;9.90;;;;;;;19.67;61.13;99549.17;223785;182;136460;-66
2023/05/20 19:45:06;;;;;;;14.70;10.70;;;;;;;19.64;60.87;99545.29;223663;182;145616;-66
2023/05/20 19:50:09;;;;;;;13.00;8.50;;;;;;;19.53;61.01;99543.15;223791;183;140063;-65
2023/05/20 19:55:13;;;;;;;12.00;7.90;;;;;;;19.41;61.33;99545.02;223695;183;136803;-65
2023/05/20 20:00:16;;;;;;;12.10;8.60;;;;;;;19.29;61.71;99547.02;223735;182;145309;-67
2023/05/20 20:05:20;;;;;;;11.90;9.80;;;;;;;19.19;61.98;99562.78;223679;182;139025;-66
2023/05/20 20:10:25;;;;;;;13.40;9.50;;;;;;;19.09;62.25;99562.96;223648;182;136809;-66
2023/05/20 20:15:30;;;;;;;14.90;9.50;;;;;;;18.97;62.62;99565.14;223660;182;145393;-66
2023/05/20 20:20:38;;;;;;;13.10;9.00;;;;;;;18.84;62.89;99564.15;223691;182;139146;-65
2023/05/20 20:25:42;;;;;;;15.90;9.20;;;;;;;18.72;63.16;99561.21;223672;183;136442;-67
2023/05/20 20:30:45;;;;;;;11.20;8.70;;;;;;;18.62;63.57;99559.16;223673;183;145749;-66
2023/05/20 20:35:53;;;;;;;11.50;9.60;;;;;;;18.58;63.75;99559.51;223731;183;138114;-66
2023/05/20 20:40:58;;;;;;;11.00;8.80;;;;;;;18.60;63.78;99558.58;223772;183;137362;-65
2023/05/20 20:46:01;;;;;;;11.00;8.70;;;;;;;18.55;63.69;99554.91;223609;183;146293;-66
2023/05/20 20:51:04;;;;;;;14.30;8.80;;;;;;;18.49;64.01;99561.03;223749;181;138367;-65
2023/05/20 20:56:08;;;;;;;13.20;9.30;;;;;;;18.38;64.17;99562.50;223850;182;136931;-64
2023/05/20 21:01:16;;;;;;;14.40;9.00;;;;;;;18.28;64.33;99566.20;223603;182;145312;-64
2023/05/20 21:06:19;;;;;;;12.40;8.90;;;;;;;18.13;64.57;99559.62;223840;182;138754;-67
2023/05/20 21:11:26;;;;;;;13.30;9.90;;;;;;;17.99;64.94;99562.98;223658;182;137368;-65
2023/05/20 21:16:30;;;;;;;10.40;7.80;;;;;;;17.89;65.53;99561.50;223707;181;145994;-64
2023/05/20 21:21:35;;;;;;;10.50;8.70;;;;;;;17.84;65.80;99565.29;221919;181;140095;-63
2023/05/20 21:26:38;;;;;;;15.60;9.00;;;;;;;17.84;66.25;99564.94;223729;182;138072;-64
2023/05/20 21:31:41;;;;;;;11.30;8.80;;;;;;;17.88;66.30;99557.63;223825;181;145776;-66
2023/05/20 21:36:44;;;;;;;12.60;9.80;;;;;;;17.85;66.42;99561.43;223649;181;139097;-64
2023/05/20 21:41:47;;;;;;;14.30;9.60;;;;;;;17.81;66.52;99563.39;223200;181;136804;-62
2023/05/20 21:46:51;;;;;;;12.90;9.50;;;;;;;17.73;66.82;99559.69;221509;181;145955;-63
2023/05/20 21:51:54;;;;;;;13.00;9.80;;;;;;;17.71;66.86;99555.80;223726;181;138751;-64
2023/05/20 21:56:57;;;;;;;11.40;8.90;;;;;;;17.62;67.03;99558.98;223707;181;137475;-63
2023/05/20 22:02:00;;;;;;;11.80;9.20;;;;;;;17.60;67.25;99560.80;223784;181;145590;-63
2023/05/20 22:07:04;;;;;;;12.30;9.60;;;;;;;17.63;67.31;99558.76;223746;181;138894;-64
2023/05/20 22:12:09;;;;;;;12.30;9.90;;;;;;;17.66;67.27;99556.52;223780;181;136857;-64
2023/05/20 22:17:13;;;;;;;15.20;9.70;;;;;;;17.65;67.47;99551.06;223716;182;145956;-64
2023/05/20 22:22:16;;;;;;;112.70;89.90;;;;;;;17.68;67.88;99547.01;223662;181;138242;-64
2023/05/20 22:27:20;;;;;;;15.80;11.60;;;;;;;17.72;67.72;99541.27;223660;181;137765;-64
2023/05/20 22:32:23;;;;;;;13.90;10.00;;;;;;;17.64;67.81;99540.77;223726;181;145375;-65
2023/05/20 22:37:27;;;;;;;20.30;9.70;;;;;;;17.54;68.04;99536.70;223754;182;138362;-65
2023/05/20 22:42:30;;;;;;;13.70;9.30;;;;;;;17.53;68.38;99532.55;223812;181;137368;-64
2023/05/20 22:47:33;;;;;;;12.80;10.00;;;;;;;17.52;68.44;99531.01;223730;181;145352;-65
2023/05/20 22:52:37;;;;;;;15.90;9.90;;;;;;;17.46;68.60;99532.34;223776;181;138388;-66
2023/05/20 22:57:42;;;;;;;11.10;9.70;;;;;;;17.43;68.86;99531.75;223725;181;137193;-70
2023/05/20 23:02:48;;;;;;;16.60;10.30;;;;;;;17.39;69.07;99523.23;223798;181;145875;-71
2023/05/20 23:07:52;;;;;;;16.80;12.40;;;;;;;17.36;69.32;99525.83;223789;182;139348;-68
2023/05/20 23:12:55;;;;;;;14.70;9.90;;;;;;;17.28;69.61;99524.88;223806;181;139353;-69
2023/05/20 23:17:59;;;;;;;13.90;9.60;;;;;;;17.22;70.01;99518.16;223763;182;145165;-68
2023/05/20 23:23:02;;;;;;;11.60;9.90;;;;;;;17.24;70.34;99518.75;223690;181;140292;-69
2023/05/20 23:28:13;;;;;;;18.20;10.80;;;;;;;17.28;70.60;99518.47;223740;181;136957;-67
2023/05/20 23:33:16;;;;;;;16.90;10.80;;;;;;;17.28;70.76;99514.30;223777;181;145736;-67
2023/05/20 23:38:27;;;;;;;16.30;10.90;;;;;;;17.30;70.93;99517.23;223815;181;138397;-68
2023/05/20 23:43:30;;;;;;;14.70;11.10;;;;;;;17.29;71.15;99516.75;223773;181;137202;-68
2023/05/20 23:48:34;;;;;;;11.70;9.10;;;;;;;17.25;71.26;99521.14;223773;181;145442;-67
2023/05/20 23:53:39;;;;;;;12.50;9.30;;;;;;;17.25;71.34;99516.67;223715;182;138907;-68
2023/05/20 23:58:42;;;;;;;13.20;10.30;;;;;;;17.30;71.49;99512.71;223729;181;137414;-68
